Time;durP1;ratioP1;P1;durP2;ratioP2;P2;SDS_P1;SDS_P2;PMS_P1;PMS_P2;Temp;Humidity;BMP_temperature;BMP_pressure;BME280_temperature;BME280_humidity;BME280_pressure;Samples;Min_cycle;Max_cycle;Signal;HPM_P1;HPM_P2
2023/09/24 00:00:13;;;;;;;4.27;3.67;;;18.40;56.80;;;;;;5077923;28;20791;-44
2023/09/24 00:02:38;;;;;;;4.67;3.50;;;18.50;57.00;;;;;;5081647;28;20452;-47
2023/09/24 00:05:08;;;;;;;5.23;2.93;;;18.50;56.90;;;;;;5084642;28;20442;-45
2023/09/24 00:07:33;;;;;;;4.90;3.30;;;18.40;57.00;;;;;;5080706;28;20592;-44
2023/09/24 00:10:00;;;;;;;4.30;2.77;;;18.40;56.60;;;;;;5093437;28;20435;-45
2023/09/24 00:12:29;;;;;;;4.33;3.70;;;18.50;57.00;;;;;;5090047;28;20286;-45
2023/09/24 00:14:56;;;;;;;4.47;3.50;;;18.60;56.40;;;;;;5091637;28;20469;-44
2023/09/24 00:17:22;;;;;;;5.30;2.80;;;18.50;56.10;;;;;;5084311;28;20449;-45
2023/09/24 00:19:47;;;;;;;6.63;3.37;;;18.40;56.40;;;;;;5085837;28;20950;-46
2023/09/24 00:22:13;;;;;;;2.93;2.63;;;18.40;56.20;;;;;;5085027;28;20195;-45
2023/09/24 00:24:39;;;;;;;4.10;3.10;;;18.30;56.20;;;;;;5082054;28;20652;-45
2023/09/24 00:27:05;;;;;;;3.23;2.97;;;18.30;56.40;;;;;;5085627;28;20214;-47
2023/09/24 00:29:31;;;;;;;8.97;3.37;;;18.20;56.30;;;;;;5087592;28;20195;-48
2023/09/24 00:31:56;;;;;;;7.23;3.03;;;18.20;56.20;;;;;;5081966;28;20450;-45
2023/09/24 00:34:22;;;;;;;3.80;2.97;;;18.20;56.20;;;;;;5081332;28;20485;-46
2023/09/24 00:36:50;;;;;;;6.00;2.90;;;18.20;56.20;;;;;;5090589;28;20191;-45
2023/09/24 00:39:16;;;;;;;3.73;2.63;;;18.20;56.20;;;;;;5090110;28;20199;-45
2023/09/24 00:41:45;;;;;;;3.97;2.63;;;18.20;56.10;;;;;;5090823;28;20421;-44
2023/09/24 00:44:14;;;;;;;5.23;2.97;;;18.10;56.50;;;;;;5089540;28;20486;-44
2023/09/24 00:46:43;;;;;;;5.57;2.77;;;18.10;56.80;;;;;;5089378;28;20439;-45
2023/09/24 00:49:09;;;;;;;5.70;3.20;;;18.10;57.00;;;;;;5087757;28;20846;-44
2023/09/24 00:51:35;;;;;;;3.17;2.77;;;18.00;56.70;;;;;;5088160;28;20434;-44
2023/09/24 00:54:02;;;;;;;3.40;2.40;;;17.90;57.00;;;;;;5088631;28;20706;-47
2023/09/24 00:56:27;;;;;;;9.40;3.30;;;17.90;56.80;;;;;;5094413;28;20433;-45
2023/09/24 00:58:54;;;;;;;4.00;3.57;;;17.90;56.60;;;;;;5086701;28;20492;-44
2023/09/24 01:01:24;;;;;;;8.50;3.03;;;17.90;56.90;;;;;;5078221;28;20200;-45
2023/09/24 01:03:50;;;;;;;5.00;3.10;;;17.90;57.10;;;;;;5079894;28;20852;-45
2023/09/24 01:06:17;;;;;;;3.23;2.80;;;17.90;57.30;;;;;;5088287;28;20811;-45
2023/09/24 01:08:43;;;;;;;3.70;3.40;;;17.90;57.20;;;;;;5080879;28;20453;-47
2023/09/24 01:11:09;;;;;;;3.50;2.70;;;17.90;57.50;;;;;;5085227;28;20460;-45
2023/09/24 01:13:43;;;;;;;3.83;3.13;;;18.00;56.70;;;;;;5085731;28;20275;-45
2023/09/24 01:16:10;;;;;;;5.80;3.30;;;18.00;56.70;;;;;;5081969;28;20449;-44
2023/09/24 01:18:37;;;;;;;4.10;3.47;;;17.90;56.40;;;;;;5075226;28;20437;-45
2023/09/24 01:21:11;;;;;;;6.07;3.37;;;17.80;56.70;;;;;;5085609;28;20815;-45
2023/09/24 01:23:37;;;;;;;6.03;2.97;;;17.80;56.50;;;;;;5085265;28;20468;-46
2023/09/24 01:26:03;;;;;;;4.00;2.97;;;17.80;56.60;;;;;;5091202;28;20441;-46
2023/09/24 01:28:30;;;;;;;3.60;2.90;;;17.80;56.70;;;;;;5086313;28;20426;-44
2023/09/24 01:30:57;;;;;;;3.40;2.80;;;17.80;56.70;;;;;;5098236;28;20524;-46
2023/09/24 01:33:23;;;;;;;3.20;2.87;;;17.80;56.50;;;;;;5076298;28;20446;-45
2023/09/24 01:35:49;;;;;;;3.20;2.63;;;17.80;56.40;;;;;;5085970;28;20517;-44
2023/09/24 01:38:16;;;;;;;6.13;3.10;;;17.80;56.20;;;;;;5086035;28;20468;-44
2023/09/24 01:40:41;;;;;;;6.50;3.30;;;17.70;56.30;;;;;;5089225;28;20245;-44
2023/09/24 01:43:08;;;;;;;4.77;2.77;;;17.60;56.30;;;;;;5080751;28;20429;-44
2023/09/24 01:45:38;;;;;;;3.30;2.67;;;17.50;57.50;;;;;;5082771;28;20310;-45
2023/09/24 01:48:04;;;;;;;3.23;2.73;;;17.50;57.50;;;;;;5083708;28;20963;-45
2023/09/24 01:50:33;;;;;;;3.20;3.00;;;17.40;57.50;;;;;;5083021;28;20495;-46
2023/09/24 01:52:59;;;;;;;3.50;2.80;;;17.50;57.20;;;;;;5089789;28;20490;-44
2023/09/24 01:55:25;;;;;;;2.90;2.63;;;17.50;56.90;;;;;;5085120;28;20507;-45
2023/09/24 01:57:52;;;;;;;3.20;2.53;;;17.50;56.90;;;;;;5082832;28;20779;-44
2023/09/24 02:00:23;;;;;;;3.40;2.87;;;17.40;57.20;;;;;;5088325;28;21209;-44
2023/09/24 02:02:54;;;;;;;2.90;2.63;;;17.30;56.90;;;;;;5087631;28;20502;-44
2023/09/24 02:05:20;;;;;;;5.13;3.07;;;17.30;57.10;;;;;;5093948;28;20444;-44
2023/09/24 02:07:49;;;;;;;4.50;2.40;;;17.30;57.20;;;;;;5089247;28;20448;-44
2023/09/24 02:10:18;;;;;;;3.63;2.70;;;17.30;57.10;;;;;;5090996;28;20441;-47
2023/09/24 02:12:45;;;;;;;3.67;2.87;;;17.30;56.80;;;;;;5087136;28;20530;-45
2023/09/24 02:15:12;;;;;;;3.17;2.93;;;17.30;56.40;;;;;;5077323;28;20516;-44
2023/09/24 02:17:39;;;;;;;9.07;3.13;;;17.30;57.70;;;;;;5079816;28;20439;-43
2023/09/24 02:20:18;;;;;;;2.63;2.43;;;17.30;57.40;;;;;;5089851;28;20426;-44
2023/09/24 02:22:45;;;;;;;2.67;2.47;;;17.40;56.90;;;;;;5076003;28;20966;-44
2023/09/24 02:25:13;;;;;;;3.40;2.87;;;17.40;57.00;;;;;;5084206;28;20524;-44
2023/09/24 02:27:39;;;;;;;4.33;2.40;;;17.40;56.60;;;;;;5081457;28;20437;-49
2023/09/24 02:30:06;;;;;;;3.87;2.60;;;17.30;56.40;;;;;;5087120;28;20438;-44
2023/09/24 02:32:32;;;;;;;3.03;2.50;;;17.20;56.60;;;;;;5077074;28;20452;-46
2023/09/24 02:34:57;;;;;;;2.50;2.30;;;17.10;57.10;;;;;;5080682;28;20484;-43
2023/09/24 02:37:27;;;;;;;2.93;2.60;;;16.90;57.40;;;;;;5082308;28;20192;-46
2023/09/24 02:39:54;;;;;;;3.33;2.00;;;16.90;57.50;;;;;;5089054;28;20200;-44
2023/09/24 02:42:20;;;;;;;3.03;2.37;;;16.70;57.60;;;;;;5081000;28;20482;-48
2023/09/24 02:44:47;;;;;;;3.63;2.90;;;16.70;57.90;;;;;;5084199;28;20533;-44
2023/09/24 02:47:14;;;;;;;4.77;2.80;;;16.70;57.80;;;;;;5087208;28;20801;-45
2023/09/24 02:49:40;;;;;;;4.13;2.57;;;16.70;58.00;;;;;;5071551;28;20469;-45
2023/09/24 02:52:06;;;;;;;2.00;1.80;;;16.70;58.00;;;;;;5082348;28;20804;-44
2023/09/24 02:54:32;;;;;;;3.10;2.40;;;16.60;57.80;;;;;;5078116;28;20293;-44
2023/09/24 02:56:58;;;;;;;2.43;2.20;;;16.40;58.50;;;;;;5087273;28;20899;-46
2023/09/24 02:59:23;;;;;;;2.40;2.13;;;16.50;58.20;;;;;;5088632;28;20195;-47
2023/09/24 03:01:49;;;;;;;4.73;2.87;;;16.50;58.40;;;;;;5083110;28;20932;-47
2023/09/24 03:04:15;;;;;;;1.90;1.80;;;16.40;58.00;;;;;;5088676;28;20199;-48
2023/09/24 03:06:41;;;;;;;2.37;2.17;;;16.40;58.20;;;;;;5093773;28;20194;-47
2023/09/24 03:09:10;;;;;;;1.90;1.70;;;16.50;58.10;;;;;;5091242;28;20433;-47
2023/09/24 03:11:36;;;;;;;2.40;2.13;;;16.50;58.10;;;;;;5093656;28;20578;-47
2023/09/24 03:14:02;;;;;;;2.60;2.10;;;16.30;58.10;;;;;;5085314;28;20576;-45
2023/09/24 03:16:28;;;;;;;3.73;2.13;;;16.30;58.40;;;;;;5088039;28;20438;-47
2023/09/24 03:18:54;;;;;;;2.20;2.10;;;16.30;58.50;;;;;;5096157;28;20558;-47
2023/09/24 03:21:20;;;;;;;3.93;2.20;;;16.40;58.30;;;;;;5094430;28;20449;-46
2023/09/24 03:23:45;;;;;;;2.30;2.10;;;16.50;58.00;;;;;;5084873;28;20703;-46
2023/09/24 03:26:14;;;;;;;2.60;2.23;;;16.20;58.30;;;;;;5089196;28;20183;-47
2023/09/24 03:28:41;;;;;;;2.73;2.53;;;16.20;58.80;;;;;;5093781;28;20191;-46
2023/09/24 03:31:14;;;;;;;4.03;2.30;;;16.20;58.20;;;;;;5108323;28;20528;-46
2023/09/24 03:33:40;;;;;;;3.10;2.03;;;16.20;58.70;;;;;;5083524;28;20446;-48
2023/09/24 03:36:10;;;;;;;3.87;2.67;;;16.20;58.70;;;;;;5094428;28;20479;-47
2023/09/24 03:38:36;;;;;;;2.53;2.30;;;16.20;58.20;;;;;;5093201;28;20450;-46
2023/09/24 03:41:03;;;;;;;3.93;2.77;;;16.30;58.30;;;;;;5093223;28;20501;-46
2023/09/24 03:43:29;;;;;;;4.30;2.27;;;16.30;58.10;;;;;;5086025;28;20471;-46
2023/09/24 03:45:55;;;;;;;3.90;2.00;;;16.40;57.80;;;;;;5086763;28;20443;-46
2023/09/24 03:48:22;;;;;;;2.90;2.50;;;16.30;58.20;;;;;;5084106;28;20441;-46
2023/09/24 03:50:48;;;;;;;4.07;2.30;;;16.30;58.10;;;;;;5085493;28;20215;-47
2023/09/24 03:53:18;;;;;;;4.10;2.43;;;16.30;58.20;;;;;;5079176;28;20537;-47
2023/09/24 03:55:45;;;;;;;4.23;2.53;;;16.20;57.90;;;;;;5082041;28;20255;-48
2023/09/24 03:58:11;;;;;;;3.70;2.50;;;16.10;57.90;;;;;;5084400;28;20473;-49
2023/09/24 04:00:37;;;;;;;4.60;2.30;;;15.80;58.50;;;;;;5076493;28;20442;-47
2023/09/24 04:03:03;;;;;;;4.27;2.43;;;15.60;58.80;;;;;;5080497;28;20455;-46
2023/09/24 04:05:30;;;;;;;3.17;1.80;;;15.30;59.30;;;;;;5093474;28;20184;-48
2023/09/24 04:07:56;;;;;;;2.30;2.10;;;15.10;60.20;;;;;;5084768;28;20530;-47
2023/09/24 04:10:27;;;;;;;6.30;1.93;;;14.90;61.20;;;;;;5090801;28;20420;-46
2023/09/24 04:12:52;;;;;;;2.83;2.07;;;15.00;61.20;;;;;;5085377;28;20944;-47
2023/09/24 04:15:27;;;;;;;5.80;2.20;;;15.00;60.80;;;;;;5090264;28;20485;-47
2023/09/24 04:17:56;;;;;;;2.33;2.10;;;15.00;60.70;;;;;;5086536;28;20194;-47
2023/09/24 04:20:22;;;;;;;4.43;2.63;;;14.90;60.90;;;;;;5092399;28;20449;-50
2023/09/24 04:22:50;;;;;;;2.13;1.90;;;15.00;61.10;;;;;;5088457;28;20796;-49
2023/09/24 04:25:20;;;;;;;3.67;2.37;;;14.80;61.20;;;;;;5084689;28;20249;-51
2023/09/24 04:27:45;;;;;;;2.57;2.37;;;14.80;61.70;;;;;;5079995;28;20513;-47
2023/09/24 04:30:15;;;;;;;2.80;2.23;;;14.60;61.90;;;;;;5089991;28;20863;-48
2023/09/24 04:32:42;;;;;;;5.60;2.50;;;14.50;62.10;;;;;;5086752;28;20195;-46
2023/09/24 04:35:09;;;;;;;15.30;2.60;;;14.60;61.90;;;;;;5082881;28;20843;-51
2023/09/24 04:37:35;;;;;;;3.43;2.20;;;14.60;61.90;;;;;;5088549;28;20445;-49
2023/09/24 04:40:02;;;;;;;3.00;2.80;;;14.60;61.90;;;;;;5080102;28;20969;-50
2023/09/24 04:42:27;;;;;;;4.93;2.17;;;14.50;61.90;;;;;;5091675;28;20494;-46
2023/09/24 04:44:53;;;;;;;3.10;2.73;;;14.40;62.60;;;;;;5093118;28;20955;-46
2023/09/24 04:47:18;;;;;;;2.57;1.87;;;14.60;62.50;;;;;;5090969;28;20622;-49
2023/09/24 04:49:44;;;;;;;2.40;2.20;;;14.60;62.00;;;;;;5089987;28;20322;-50
2023/09/24 04:52:09;;;;;;;3.40;2.30;;;14.50;61.90;;;;;;5090822;28;20195;-49
2023/09/24 04:54:35;;;;;;;2.20;2.00;;;14.00;63.50;;;;;;5075498;28;20239;-47
2023/09/24 04:57:01;;;;;;;3.47;2.13;;;13.90;64.60;;;;;;5082687;28;20192;-46
2023/09/24 04:59:26;;;;;;;4.43;2.20;;;13.60;65.00;;;;;;5091006;28;20194;-50
2023/09/24 05:01:52;;;;;;;3.67;2.50;;;13.80;65.10;;;;;;5084886;28;20292;-51
2023/09/24 05:04:20;;;;;;;2.17;2.00;;;13.80;64.70;;;;;;5091838;28;20199;-50
2023/09/24 05:06:46;;;;;;;2.50;2.27;;;13.70;64.50;;;;;;5079982;28;20259;-51
2023/09/24 05:09:12;;;;;;;2.53;2.33;;;13.80;64.80;;;;;;5089685;28;20536;-47
2023/09/24 05:11:37;;;;;;;2.40;2.13;;;13.80;64.60;;;;;;5075370;28;20195;-46
2023/09/24 05:14:03;;;;;;;2.70;2.50;;;13.70;65.10;;;;;;5073179;28;20677;-46
2023/09/24 05:16:29;;;;;;;2.53;2.33;;;13.80;65.10;;;;;;5083874;28;20195;-47
2023/09/24 05:18:56;;;;;;;2.53;2.23;;;13.90;64.50;;;;;;5083432;28;20441;-46
2023/09/24 05:21:22;;;;;;;4.50;2.97;;;13.90;63.90;;;;;;5088940;28;20472;-46
2023/09/24 05:23:47;;;;;;;3.37;2.47;;;13.90;64.10;;;;;;5081015;28;20468;-47
2023/09/24 05:26:14;;;;;;;3.37;2.70;;;14.00;63.90;;;;;;5087131;28;20202;-46
2023/09/24 05:28:40;;;;;;;2.73;2.30;;;14.10;63.80;;;;;;5086103;28;20253;-46
2023/09/24 05:31:07;;;;;;;2.60;2.40;;;14.00;63.70;;;;;;5085430;28;20464;-50
2023/09/24 05:33:32;;;;;;;2.87;2.30;;;14.10;63.60;;;;;;5080736;28;20437;-47
2023/09/24 05:35:58;;;;;;;2.47;2.27;;;14.20;63.30;;;;;;5084877;28;20496;-47
2023/09/24 05:38:26;;;;;;;2.53;1.73;;;14.20;63.30;;;;;;5091076;28;20203;-48
2023/09/24 05:40:52;;;;;;;5.90;2.77;;;14.30;62.90;;;;;;5087212;28;20232;-46
2023/09/24 05:43:19;;;;;;;2.10;1.90;;;14.30;62.60;;;;;;5087900;28;20800;-47
2023/09/24 05:45:48;;;;;;;3.50;2.53;;;14.20;63.00;;;;;;5084316;28;20204;-46
2023/09/24 05:48:15;;;;;;;3.63;2.27;;;14.40;63.60;;;;;;5089426;28;20438;-46
2023/09/24 05:50:41;;;;;;;4.57;2.50;;;14.60;63.40;;;;;;5084028;28;20478;-46
2023/09/24 05:53:08;;;;;;;3.53;2.33;;;14.80;63.30;;;;;;5081558;28;20799;-47
2023/09/24 05:55:34;;;;;;;4.83;2.30;;;14.90;62.40;;;;;;5076297;28;20503;-45
2023/09/24 05:57:59;;;;;;;2.40;2.20;;;15.10;62.60;;;;;;5085500;28;20533;-48
2023/09/24 06:00:28;;;;;;;3.83;2.27;;;15.30;62.00;;;;;;5078339;28;20544;-46
2023/09/24 06:02:54;;;;;;;3.87;2.20;;;15.40;61.50;;;;;;5086471;28;20274;-47
2023/09/24 06:05:19;;;;;;;5.20;2.30;;;15.50;60.10;;;;;;5081688;28;20556;-46
2023/09/24 06:07:45;;;;;;;3.50;2.30;;;15.70;59.80;;;;;;5077871;28;20939;-45
2023/09/24 06:10:11;;;;;;;2.57;2.37;;;15.60;59.40;;;;;;5080935;28;20191;-46
2023/09/24 06:12:36;;;;;;;2.30;2.10;;;15.30;59.50;;;;;;5082141;28;20206;-46
2023/09/24 06:15:03;;;;;;;2.43;2.23;;;15.20;60.50;;;;;;5089764;28;20234;-46
2023/09/24 06:17:29;;;;;;;4.53;2.80;;;15.30;60.60;;;;;;5090720;28;20244;-51
2023/09/24 06:19:55;;;;;;;1.90;1.80;;;15.10;60.80;;;;;;5076810;28;20837;-47
2023/09/24 06:22:23;;;;;;;2.60;2.40;;;14.90;62.00;;;;;;5087729;28;20187;-49
2023/09/24 06:24:50;;;;;;;2.83;2.47;;;15.10;61.30;;;;;;5085817;28;20929;-46
2023/09/24 06:27:16;;;;;;;3.53;2.70;;;15.10;61.60;;;;;;5078870;28;20442;-48
2023/09/24 06:29:42;;;;;;;2.30;2.10;;;15.00;61.50;;;;;;5075690;28;20488;-46
2023/09/24 06:32:08;;;;;;;2.67;2.33;;;15.00;62.70;;;;;;5082356;28;20438;-48
2023/09/24 06:34:36;;;;;;;2.37;2.00;;;14.80;63.20;;;;;;5083505;28;20485;-48
2023/09/24 06:37:02;;;;;;;2.53;2.13;;;15.00;63.50;;;;;;5087746;28;20677;-46
2023/09/24 06:39:29;;;;;;;3.07;2.70;;;15.50;62.70;;;;;;5093413;28;20437;-50
2023/09/24 06:41:55;;;;;;;3.20;2.73;;;15.60;60.40;;;;;;5080348;28;20457;-47
2023/09/24 06:44:23;;;;;;;3.60;2.70;;;15.60;60.90;;;;;;5078061;28;20445;-48
2023/09/24 06:46:52;;;;;;;3.90;2.67;;;15.50;60.80;;;;;;5080440;28;20450;-47
2023/09/24 06:49:18;;;;;;;2.97;2.77;;;15.20;61.70;;;;;;5087011;28;20525;-47
2023/09/24 06:51:44;;;;;;;3.50;3.20;;;15.20;62.70;;;;;;5077307;28;20446;-50
2023/09/24 06:54:09;;;;;;;2.63;2.43;;;15.10;63.60;;;;;;5102116;28;20534;-49
2023/09/24 06:56:35;;;;;;;3.30;2.73;;;15.20;62.60;;;;;;5089051;28;20192;-46
2023/09/24 06:59:01;;;;;;;2.67;2.17;;;15.60;63.40;;;;;;5089255;28;20199;-46
2023/09/24 07:01:26;;;;;;;3.50;3.07;;;15.90;61.70;;;;;;5086326;28;20222;-50
2023/09/24 07:03:52;;;;;;;3.40;2.83;;;15.80;61.90;;;;;;5084947;28;20218;-49
2023/09/24 07:06:17;;;;;;;2.33;2.13;;;15.90;61.80;;;;;;5087715;28;20183;-47
2023/09/24 07:08:43;;;;;;;2.67;2.30;;;16.30;62.30;;;;;;5079871;28;20203;-46
2023/09/24 07:11:38;;;;;;;2.87;2.60;;;16.90;61.30;;;;;;5087613;28;20241;-49
2023/09/24 07:14:06;;;;;;;2.80;2.60;;;17.40;59.30;;;;;;5080668;28;20315;-46
2023/09/24 07:16:33;;;;;;;2.90;2.37;;;17.30;58.40;;;;;;5080151;28;20748;-48
2023/09/24 07:18:58;;;;;;;3.13;2.83;;;17.30;58.40;;;;;;5081015;28;20441;-47
2023/09/24 07:21:26;;;;;;;7.30;3.03;;;17.70;58.60;;;;;;5084079;28;20446;-48
2023/09/24 07:23:54;;;;;;;2.43;2.20;;;18.10;57.90;;;;;;5083534;28;20210;-49
2023/09/24 07:26:20;;;;;;;4.07;2.67;;;18.10;57.10;;;;;;5073754;28;20453;-48
2023/09/24 07:28:46;;;;;;;3.83;2.77;;;18.30;57.30;;;;;;5090642;28;20451;-47
2023/09/24 07:31:17;;;;;;;3.03;2.10;;;18.60;56.90;;;;;;5087115;28;20184;-46
2023/09/24 07:33:43;;;;;;;2.27;2.10;;;19.00;56.30;;;;;;5083471;28;20444;-46
2023/09/24 07:36:14;;;;;;;2.80;2.60;;;19.30;55.60;;;;;;5076739;28;20468;-50
2023/09/24 07:38:41;;;;;;;2.63;2.40;;;19.60;55.10;;;;;;5089253;28;20908;-45
2023/09/24 07:41:08;;;;;;;3.03;2.83;;;19.70;54.50;;;;;;5092623;28;20453;-46
2023/09/24 07:43:37;;;;;;;3.30;3.00;;;19.90;54.40;;;;;;5085898;28;20430;-45
2023/09/24 07:46:04;;;;;;;2.40;2.20;;;20.00;54.30;;;;;;5085942;28;20803;-46
2023/09/24 07:48:30;;;;;;;2.77;2.57;;;20.10;54.20;;;;;;5087056;28;20444;-46
2023/09/24 07:50:56;;;;;;;3.10;2.80;;;20.40;54.10;;;;;;5082208;28;20449;-50
2023/09/24 07:53:22;;;;;;;3.43;3.13;;;20.60;53.70;;;;;;5078912;28;20802;-46
2023/09/24 07:56:11;;;;;;;4.20;3.03;;;20.70;53.30;;;;;;5081065;28;20226;-46
2023/09/24 07:58:38;;;;;;;3.00;2.70;;;20.90;52.50;;;;;;5080127;28;20480;-45
2023/09/24 08:01:06;;;;;;;3.73;2.40;;;21.00;52.50;;;;;;5078085;28;20446;-46
2023/09/24 08:03:32;;;;;;;3.60;2.40;;;21.10;52.30;;;;;;5081557;28;20524;-45
2023/09/24 08:05:59;;;;;;;2.67;2.47;;;21.10;52.20;;;;;;5077602;28;20441;-48
2023/09/24 08:08:26;;;;;;;2.53;2.33;;;21.10;51.80;;;;;;5087368;28;21014;-46
2023/09/24 08:10:52;;;;;;;3.20;2.60;;;21.20;51.80;;;;;;5094007;28;20417;-47
2023/09/24 08:13:19;;;;;;;3.77;2.37;;;21.20;51.80;;;;;;5093696;28;20854;-46
2023/09/24 08:15:45;;;;;;;3.57;2.40;;;21.30;52.00;;;;;;5090537;28;20571;-47
2023/09/24 08:18:12;;;;;;;3.00;2.47;;;21.30;51.80;;;;;;5088013;28;20921;-47
2023/09/24 08:20:39;;;;;;;2.37;2.00;;;21.20;52.40;;;;;;5089018;28;20423;-48
2023/09/24 08:23:04;;;;;;;2.50;2.20;;;21.30;51.90;;;;;;5093213;28;20981;-45
2023/09/24 08:25:31;;;;;;;5.07;2.70;;;21.30;52.10;;;;;;5089833;28;20417;-45
2023/09/24 08:27:57;;;;;;;2.60;2.40;;;21.30;52.00;;;;;;5089241;28;20223;-45
2023/09/24 08:30:23;;;;;;;2.43;2.23;;;21.30;51.90;;;;;;5090467;28;20678;-45
2023/09/24 08:32:49;;;;;;;3.33;2.60;;;21.40;51.50;;;;;;5089679;28;20218;-48
2023/09/24 08:35:15;;;;;;;3.20;2.17;;;21.50;51.40;;;;;;5083160;28;20826;-45
2023/09/24 08:37:40;;;;;;;4.23;2.10;;;21.40;51.50;;;;;;5086449;28;20194;-46
2023/09/24 08:40:12;;;;;;;2.80;1.93;;;21.40;51.90;;;;;;5087205;28;20192;-45
2023/09/24 08:45:47;;;;;;;3.20;2.17;;;21.50;51.40;;;;;;5073755;22;20491;-45
2023/09/24 08:48:14;;;;;;;4.33;2.93;;;21.40;51.70;;;;;;5027917;28;20502;-47
2023/09/24 08:50:41;;;;;;;6.47;3.00;;;21.60;52.00;;;;;;5030224;28;20877;-51
2023/09/24 08:53:10;;;;;;;2.27;2.10;;;21.80;51.30;;;;;;5027022;28;20444;-51
2023/09/24 08:55:37;;;;;;;2.90;2.00;;;21.90;51.20;;;;;;5034182;28;20849;-47
2023/09/24 08:58:03;;;;;;;2.53;2.33;;;22.00;50.90;;;;;;5038887;28;20432;-48
2023/09/24 09:00:28;;;;;;;3.87;1.90;;;22.20;50.90;;;;;;5030793;28;20448;-51
2023/09/24 09:02:54;;;;;;;2.27;2.03;;;22.20;51.50;;;;;;5037687;28;20193;-51
2023/09/24 09:05:23;;;;;;;2.50;2.30;;;22.40;50.80;;;;;;5033079;28;20651;-46
2023/09/24 09:08:01;;;;;;;3.07;2.33;;;22.50;49.60;;;;;;5034512;28;20212;-45
2023/09/24 09:10:29;;;;;;;3.33;2.20;;;22.70;50.00;;;;;;5036187;28;20443;-46
2023/09/24 09:13:04;;;;;;;3.27;2.10;;;22.80;50.40;;;;;;5030549;28;20455;-48
2023/09/24 09:15:30;;;;;;;3.73;2.17;;;22.80;50.20;;;;;;5026823;28;20514;-50
2023/09/24 09:17:55;;;;;;;2.20;1.90;;;23.00;49.50;;;;;;5030186;28;20456;-47
2023/09/24 09:20:39;;;;;;;2.70;2.10;;;22.90;49.00;;;;;;5037882;28;20773;-51
2023/09/24 09:23:10;;;;;;;2.00;1.80;;;23.10;48.60;;;;;;5033515;28;20225;-50
2023/09/24 09:25:52;;;;;;;2.50;1.83;;;23.10;48.80;;;;;;5030980;28;20459;-51
2023/09/24 09:28:31;;;;;;;2.20;2.00;;;23.30;48.00;;;;;;5034180;28;20452;-47
2023/09/24 09:31:07;;;;;;;2.30;1.90;;;23.30;48.70;;;;;;5024034;28;20447;-52
2023/09/24 09:33:43;;;;;;;1.83;1.60;;;23.30;48.60;;;;;;5035123;28;20533;-46
2023/09/24 09:36:27;;;;;;;3.10;2.63;;;23.70;47.60;;;;;;5023214;28;20864;-48
2023/09/24 09:38:54;;;;;;;2.20;1.93;;;23.60;46.90;;;;;;5026682;28;20884;-50
2023/09/24 09:41:23;;;;;;;3.90;2.23;;;23.60;47.00;;;;;;5028340;28;20451;-49
2023/09/24 09:43:52;;;;;;;4.43;2.10;;;23.80;47.10;;;;;;5044183;28;20530;-50
2023/09/24 09:46:23;;;;;;;2.00;1.73;;;23.90;45.60;;;;;;5032270;28;20777;-49
2023/09/24 09:48:50;;;;;;;5.87;2.30;;;24.00;45.60;;;;;;5024772;28;20463;-49
2023/09/24 09:51:18;;;;;;;2.37;1.67;;;24.10;45.50;;;;;;5028137;28;20522;-48
2023/09/24 09:53:45;;;;;;;2.20;2.00;;;24.20;45.40;;;;;;5028108;28;21006;-51
2023/09/24 09:56:11;;;;;;;4.70;2.77;;;24.30;45.30;;;;;;5024919;28;20578;-49
2023/09/24 09:58:38;;;;;;;1.80;1.70;;;24.50;44.70;;;;;;5029851;28;20870;-52
2023/09/24 10:01:07;;;;;;;2.17;1.97;;;24.70;44.80;;;;;;5026042;28;20531;-49
2023/09/24 10:03:35;;;;;;;2.60;1.90;;;24.90;44.00;;;;;;5049556;28;20890;-49
2023/09/24 10:06:04;;;;;;;1.97;1.83;;;25.00;43.40;;;;;;5025269;28;20483;-47
2023/09/24 10:08:47;;;;;;;1.90;1.80;;;25.20;42.20;;;;;;5025554;28;20436;-51
2023/09/24 10:11:32;;;;;;;4.23;2.20;;;25.40;42.60;;;;;;5033705;28;20450;-52
2023/09/24 10:14:04;;;;;;;2.73;1.40;;;25.60;42.20;;;;;;5034208;28;20455;-49
2023/09/24 10:16:31;;;;;;;3.60;1.90;;;25.80;41.70;;;;;;5032367;28;20450;-49
2023/09/24 10:19:10;;;;;;;4.00;2.10;;;26.00;40.90;;;;;;5029656;28;20436;-52
2023/09/24 10:21:44;;;;;;;2.43;1.70;;;26.20;40.00;;;;;;5030049;28;20463;-50
2023/09/24 10:24:10;;;;;;;3.20;1.50;;;26.30;40.10;;;;;;5031483;28;20443;-51
2023/09/24 10:26:54;;;;;;;2.40;1.70;;;25.70;38.80;;;;;;5033795;28;21016;-52
2023/09/24 10:29:40;;;;;;;3.30;1.70;;;25.30;40.30;;;;;;5031645;28;20659;-50
2023/09/24 10:32:09;;;;;;;3.27;2.20;;;25.60;39.50;;;;;;5027491;28;20533;-51
2023/09/24 10:34:59;;;;;;;3.87;1.73;;;25.70;40.00;;;;;;5029003;28;21024;-52
2023/09/24 10:37:28;;;;;;;3.03;1.73;;;26.00;40.40;;;;;;5029335;28;20451;-52
2023/09/24 10:40:04;;;;;;;3.50;2.20;;;26.30;39.50;;;;;;5030252;28;20890;-51
2023/09/24 10:42:34;;;;;;;2.07;1.87;;;26.50;39.00;;;;;;5032148;28;20458;-51
2023/09/24 10:45:12;;;;;;;3.33;2.03;;;26.60;38.10;;;;;;5030998;28;20472;-49
2023/09/24 10:47:38;;;;;;;3.63;1.70;;;26.80;38.50;;;;;;5024843;28;20444;-49
2023/09/24 10:50:11;;;;;;;2.10;1.90;;;26.90;38.70;;;;;;5044680;28;20439;-46
2023/09/24 10:52:51;;;;;;;1.83;1.50;;;26.70;37.80;;;;;;5036096;28;20499;-50
2023/09/24 10:55:39;;;;;;;1.93;1.73;;;27.00;39.10;;;;;;5036018;28;20483;-47
2023/09/24 10:58:12;;;;;;;3.20;2.00;;;27.10;37.80;;;;;;5031542;28;20451;-50
2023/09/24 11:00:39;;;;;;;2.90;2.10;;;27.30;36.40;;;;;;5031668;28;20972;-47
2023/09/24 11:03:07;;;;;;;2.77;1.77;;;27.60;37.30;;;;;;5031898;28;20963;-50
2023/09/24 11:05:40;;;;;;;2.40;1.70;;;27.50;35.10;;;;;;5035358;28;20604;-48
2023/09/24 11:08:07;;;;;;;3.70;1.77;;;27.30;35.80;;;;;;5044316;28;20446;-52
2023/09/24 11:10:33;;;;;;;2.57;1.50;;;27.60;36.50;;;;;;5048540;28;20807;-46
2023/09/24 11:13:01;;;;;;;2.10;1.43;;;27.90;35.80;;;;;;5040799;28;20427;-49
2023/09/24 11:15:31;;;;;;;2.30;1.50;;;27.50;34.90;;;;;;5039599;28;20483;-51
2023/09/24 11:17:57;;;;;;;2.20;1.73;;;27.80;35.80;;;;;;5051645;28;21020;-49
2023/09/24 11:20:23;;;;;;;2.90;1.63;;;28.20;34.20;;;;;;5044789;28;20942;-46
2023/09/24 11:22:59;;;;;;;2.57;2.10;;;28.40;32.70;;;;;;5031999;28;20485;-49
2023/09/24 11:25:25;;;;;;;4.53;1.40;;;28.50;32.60;;;;;;5035723;28;20504;-48
2023/09/24 11:27:56;;;;;;;1.50;1.40;;;28.70;34.40;;;;;;5037672;28;20442;-46
2023/09/24 11:30:24;;;;;;;3.80;1.60;;;28.90;34.30;;;;;;5054176;28;20477;-48
2023/09/24 11:32:51;;;;;;;1.60;1.50;;;29.00;33.70;;;;;;5043949;28;20959;-45
2023/09/24 11:35:18;;;;;;;3.70;1.93;;;29.10;32.00;;;;;;5033476;28;20490;-51
2023/09/24 11:37:53;;;;;;;3.30;1.60;;;29.10;32.50;;;;;;5041675;28;20497;-51
2023/09/24 11:40:23;;;;;;;1.70;1.60;;;29.30;32.50;;;;;;5042659;28;20824;-49
2023/09/24 11:42:53;;;;;;;1.77;1.50;;;29.10;31.50;;;;;;5043959;28;21034;-46
2023/09/24 11:45:50;;;;;;;1.97;1.80;;;28.80;31.70;;;;;;5037798;28;20472;-49
2023/09/24 11:48:19;;;;;;;2.30;1.70;;;28.60;32.10;;;;;;5030725;28;21057;-50
2023/09/24 11:50:47;;;;;;;2.70;1.70;;;27.90;33.90;;;;;;5025410;28;20499;-47
2023/09/24 11:53:13;;;;;;;1.90;1.73;;;28.20;34.50;;;;;;5035415;28;20614;-46
2023/09/24 11:55:40;;;;;;;6.00;1.60;;;28.30;33.80;;;;;;5044035;28;20502;-48
2023/09/24 11:58:06;;;;;;;2.80;1.97;;;27.90;31.90;;;;;;5030537;28;20479;-49
2023/09/24 12:00:34;;;;;;;1.90;1.77;;;27.70;33.60;;;;;;5034687;28;20467;-47
2023/09/24 12:03:00;;;;;;;2.70;1.80;;;28.10;34.70;;;;;;5037031;28;20225;-47
2023/09/24 12:05:27;;;;;;;2.27;1.50;;;28.40;34.70;;;;;;5039057;28;20440;-47
2023/09/24 12:07:54;;;;;;;2.33;1.70;;;28.20;32.80;;;;;;5030650;28;20506;-49
2023/09/24 12:10:21;;;;;;;1.80;1.60;;;28.40;33.10;;;;;;5030401;28;20452;-47
2023/09/24 12:12:48;;;;;;;1.57;1.47;;;28.60;32.30;;;;;;5024217;28;20450;-51
2023/09/24 12:15:13;;;;;;;1.73;1.50;;;28.80;33.20;;;;;;5030348;28;20491;-50
2023/09/24 12:17:41;;;;;;;2.60;1.57;;;29.10;31.70;;;;;;5025467;28;20954;-48
2023/09/24 12:20:08;;;;;;;2.50;1.53;;;29.10;31.20;;;;;;5032438;28;20194;-46
2023/09/24 12:22:35;;;;;;;2.43;1.87;;;29.10;31.20;;;;;;5029296;28;20447;-50
2023/09/24 12:25:00;;;;;;;1.53;1.37;;;29.10;30.70;;;;;;5029248;28;20938;-50
2023/09/24 12:27:29;;;;;;;1.70;1.40;;;29.00;31.50;;;;;;5033337;28;20527;-49
2023/09/24 12:29:55;;;;;;;2.40;1.77;;;28.80;32.70;;;;;;5039471;28;20251;-47
2023/09/24 12:32:20;;;;;;;3.10;2.07;;;28.50;30.00;;;;;;5030784;28;20451;-49
2023/09/24 12:34:46;;;;;;;3.47;1.73;;;28.50;30.60;;;;;;5032849;28;21540;-49
2023/09/24 12:37:12;;;;;;;2.00;1.50;;;28.50;32.10;;;;;;5045327;28;20224;-48
2023/09/24 12:39:37;;;;;;;1.83;1.67;;;28.60;30.60;;;;;;5029535;28;20197;-49
2023/09/24 12:42:03;;;;;;;1.70;1.53;;;28.70;29.40;;;;;;5037510;28;20189;-49
2023/09/24 12:44:28;;;;;;;1.90;1.70;;;28.70;30.00;;;;;;5036794;28;20285;-49
2023/09/24 12:46:55;;;;;;;2.30;1.93;;;28.80;29.90;;;;;;5033861;28;20193;-47
2023/09/24 12:49:21;;;;;;;1.87;1.63;;;28.90;28.70;;;;;;5043771;28;20672;-49
2023/09/24 12:51:47;;;;;;;2.50;1.87;;;28.80;29.10;;;;;;5046681;28;20466;-48
2023/09/24 12:54:12;;;;;;;2.03;1.80;;;28.80;30.60;;;;;;5036972;28;20538;-50